Time;durP1;ratioP1;P1;durP2;ratioP2;P2;SDS_P1;SDS_P2;PMS_P1;PMS_P2;Temp;Humidity;BMP_temperature;BMP_pressure;BME280_temperature;BME280_humidity;BME280_pressure;Samples;Min_cycle;Max_cycle;Signal;HPM_P1;HPM_P2
2021/06/28 00:01:55;;;;;;;294.45;162.68;;;;;;;21.54;73.50;97825.81;4987478;28;20243;-73
2021/06/28 00:04:21;;;;;;;286.70;157.50;;;;;;;21.16;74.00;97820.25;4986930;28;20240;-73
2021/06/28 00:06:48;;;;;;;297.60;161.07;;;;;;;20.84;75.47;97817.72;4990290;28;20243;-73
2021/06/28 00:09:14;;;;;;;287.13;158.48;;;;;;;20.70;75.99;97820.75;4989788;28;20220;-73
2021/06/28 00:11:41;;;;;;;273.20;154.30;;;;;;;20.78;76.13;97819.09;4986110;28;20244;-73
2021/06/28 00:14:09;;;;;;;298.70;161.93;;;;;;;20.90;75.67;97817.22;4984052;28;20216;-73
2021/06/28 00:16:35;;;;;;;307.83;164.98;;;;;;;20.66;75.99;97814.84;4985116;28;20247;-73
2021/06/28 00:19:03;;;;;;;296.17;160.52;;;;;;;20.70;76.62;97815.44;4986736;28;20219;-73
2021/06/28 00:21:29;;;;;;;294.00;160.65;;;;;;;20.59;76.79;97819.78;4988506;28;21027;-73
2021/06/28 00:23:56;;;;;;;296.92;154.05;;;;;;;20.66;77.19;97819.28;4985508;28;20216;-73
2021/06/28 00:26:23;;;;;;;279.02;165.55;;;;;;;20.52;77.93;97818.63;4988469;28;20251;-73
2021/06/28 00:28:50;;;;;;;283.40;158.68;;;;;;;20.81;76.69;97815.34;4986032;28;20223;-73
2021/06/28 00:31:19;;;;;;;300.67;164.88;;;;;;;21.67;73.35;97817.59;4988239;28;20354;-73
2021/06/28 00:33:45;;;;;;;292.33;154.68;;;;;;;21.80;72.56;97814.69;4989460;28;20228;-74
2021/06/28 00:36:13;;;;;;;298.42;158.95;;;;;;;21.49;73.32;97820.94;4984111;28;20263;-73
2021/06/28 00:38:39;;;;;;;298.38;159.95;;;;;;;21.54;73.13;97816.06;4986538;28;20820;-73
2021/06/28 00:41:06;;;;;;;285.52;163.10;;;;;;;21.11;74.92;97819.78;4987919;28;20251;-73
2021/06/28 00:43:33;;;;;;;296.95;158.07;;;;;;;21.16;74.62;97812.28;4987630;28;20226;-73
2021/06/28 00:45:59;;;;;;;302.10;161.70;;;;;;;21.20;75.00;97818.16;4987349;28;20248;-73
2021/06/28 00:48:27;;;;;;;295.77;159.38;;;;;;;20.88;75.62;97813.84;4988355;28;20219;-74
2021/06/28 00:50:55;;;;;;;306.58;167.60;;;;;;;20.80;75.30;97822.44;4988210;28;20243;-73
2021/06/28 00:53:23;;;;;;;298.00;158.23;;;;;;;21.18;74.59;97825.41;4989356;28;20620;-73
2021/06/28 00:55:52;;;;;;;282.85;157.55;;;;;;;20.76;75.81;97822.84;4988845;28;20921;-73
2021/06/28 00:58:19;;;;;;;299.98;158.30;;;;;;;20.68;76.13;97822.69;4989292;28;20243;-73
2021/06/28 01:00:46;;;;;;;294.83;158.60;;;;;;;20.41;78.07;97824.00;4986962;28;20246;-73
2021/06/28 01:03:12;;;;;;;301.20;158.48;;;;;;;20.75;77.19;97826.47;4988703;28;20243;-73
2021/06/28 01:05:42;;;;;;;282.27;151.45;;;;;;;20.84;75.94;97825.66;4984086;28;20246;-73
2021/06/28 01:08:10;;;;;;;299.05;158.55;;;;;;;21.10;75.56;97819.94;4986148;28;20640;-74
2021/06/28 01:10:38;;;;;;;305.38;164.13;;;;;;;20.72;76.45;97824.09;4987518;28;20239;-74
2021/06/28 01:13:05;;;;;;;308.00;161.68;;;;;;;20.64;76.99;97823.88;4988233;28;20215;-73
2021/06/28 01:15:31;;;;;;;296.58;154.68;;;;;;;21.30;74.48;97821.69;4987857;28;20247;-73
2021/06/28 01:17:59;;;;;;;293.38;155.13;;;;;;;20.99;75.65;97826.19;4988437;28;20243;-73
2021/06/28 01:20:27;;;;;;;302.27;159.98;;;;;;;20.56;76.93;97825.34;4987612;28;20246;-74
2021/06/28 01:22:57;;;;;;;286.95;159.27;;;;;;;20.53;77.21;97836.22;4988890;28;20219;-74
2021/06/28 01:25:27;;;;;;;291.45;159.90;;;;;;;20.42;77.36;97831.81;4988065;28;20457;-73
2021/06/28 01:27:53;;;;;;;301.52;149.52;;;;;;;20.43;77.65;97832.66;4986139;28;20219;-75
2021/06/28 01:30:22;;;;;;;295.35;151.63;;;;;;;20.76;76.84;97830.81;4986917;28;20231;-73
2021/06/28 01:32:49;;;;;;;294.83;159.45;;;;;;;20.64;76.95;97829.19;4987283;28;20216;-75
2021/06/28 01:35:16;;;;;;;316.48;161.68;;;;;;;20.36;78.31;97829.69;4991189;28;20739;-74
2021/06/28 01:37:45;;;;;;;291.10;154.25;;;;;;;20.68;77.27;97833.28;4993829;28;20436;-73
2021/06/28 01:40:14;;;;;;;285.50;153.43;;;;;;;20.36;78.23;97834.16;4991638;28;20227;-73
2021/06/28 01:42:42;;;;;;;296.48;153.75;;;;;;;20.26;78.69;97838.53;4991083;28;20884;-74
2021/06/28 01:45:11;;;;;;;316.83;167.20;;;;;;;20.29;78.32;97846.22;4992574;28;20919;-74
2021/06/28 01:47:38;;;;;;;287.15;154.70;;;;;;;20.14;77.74;97841.22;4990635;28;20307;-74
2021/06/28 01:50:06;;;;;;;299.67;153.48;;;;;;;19.97;78.37;97844.44;4991524;28;20208;-73
2021/06/28 01:52:33;;;;;;;300.35;157.60;;;;;;;20.22;77.27;97846.72;4992015;28;20228;-74
2021/06/28 01:55:00;;;;;;;296.77;147.65;;;;;;;20.05;78.08;97841.97;4988991;28;20240;-73
2021/06/28 01:57:27;;;;;;;302.55;153.25;;;;;;;20.09;77.93;97847.88;4992300;28;20248;-73
2021/06/28 01:59:54;;;;;;;291.55;148.65;;;;;;;20.61;77.14;97856.81;4989003;28;20880;-73
2021/06/28 02:02:21;;;;;;;290.60;147.07;;;;;;;20.72;76.68;97850.59;4991957;28;20247;-74
2021/06/28 02:04:48;;;;;;;301.23;150.05;;;;;;;20.46;77.09;97847.44;4992788;28;20227;-74
2021/06/28 02:07:15;;;;;;;285.27;155.50;;;;;;;20.23;77.35;97853.69;4992804;28;20247;-73
2021/06/28 02:09:41;;;;;;;290.27;155.75;;;;;;;20.44;76.52;97852.91;4994885;28;20212;-74
2021/06/28 02:12:09;;;;;;;278.15;148.25;;;;;;;20.51;75.64;97846.13;4990929;28;20336;-73
2021/06/28 02:14:36;;;;;;;306.80;153.90;;;;;;;20.48;76.53;97849.00;4991331;28;20240;-73
2021/06/28 02:17:04;;;;;;;282.23;148.95;;;;;;;20.30;77.36;97851.38;4989304;28;20232;-73
2021/06/28 02:19:31;;;;;;;306.48;157.88;;;;;;;20.07;77.53;97850.66;4990068;28;20216;-74
2021/06/28 02:21:57;;;;;;;294.10;156.95;;;;;;;20.15;77.43;97850.03;4989320;28;20239;-74
2021/06/28 02:24:24;;;;;;;297.75;149.40;;;;;;;20.34;76.26;97854.63;4989784;28;20331;-74
2021/06/28 02:26:51;;;;;;;297.48;150.73;;;;;;;20.25;76.63;97836.84;4994102;28;20236;-74
2021/06/28 02:29:17;;;;;;;292.73;155.30;;;;;;;20.73;76.22;97841.66;4988830;28;20223;-74
2021/06/28 02:31:44;;;;;;;292.98;149.57;;;;;;;20.78;76.04;97836.81;4989791;28;20239;-73
2021/06/28 02:34:12;;;;;;;295.67;152.65;;;;;;;20.25;76.72;97839.50;4988762;28;20215;-73
2021/06/28 02:36:39;;;;;;;296.65;156.90;;;;;;;20.09;77.59;97838.13;4988208;28;20239;-73
2021/06/28 02:39:07;;;;;;;302.70;153.75;;;;;;;20.37;77.35;97831.38;4988009;28;20471;-73
2021/06/28 02:41:34;;;;;;;310.23;158.88;;;;;;;20.22;77.10;97838.78;5000783;28;20235;-74
2021/06/28 02:44:00;;;;;;;296.60;155.48;;;;;;;20.30;76.57;97839.97;5010488;28;20242;-73
2021/06/28 02:46:27;;;;;;;299.67;148.75;;;;;;;20.65;76.02;97838.84;5000477;28;20741;-73
2021/06/28 02:48:53;;;;;;;288.02;146.75;;;;;;;20.34;75.34;97830.78;4986996;28;20223;-73
2021/06/28 02:51:21;;;;;;;299.77;155.45;;;;;;;20.15;75.92;97842.91;4989801;28;20242;-74
2021/06/28 02:53:48;;;;;;;294.33;153.77;;;;;;;20.03;76.48;97839.47;4988893;28;20724;-73
2021/06/28 02:56:16;;;;;;;305.13;154.07;;;;;;;20.14;76.25;97841.22;4988789;28;20256;-73
2021/06/28 02:58:44;;;;;;;298.52;149.02;;;;;;;20.31;75.59;97833.69;4986309;28;20235;-73
2021/06/28 03:01:11;;;;;;;295.77;151.85;;;;;;;20.51;75.81;97832.88;4990309;28;20599;-73
2021/06/28 03:03:37;;;;;;;281.60;144.82;;;;;;;20.45;75.65;97838.66;4989158;28;20975;-73
2021/06/28 03:06:04;;;;;;;293.10;150.73;;;;;;;20.27;75.75;97835.75;4989406;28;20236;-73
2021/06/28 03:08:32;;;;;;;291.80;149.77;;;;;;;20.14;76.01;97830.63;4990638;28;20989;-73
2021/06/28 03:11:01;;;;;;;305.35;148.00;;;;;;;20.03;76.26;97839.47;4991050;28;20243;-73
2021/06/28 03:13:28;;;;;;;295.40;152.32;;;;;;;20.04;76.27;97840.31;4990029;28;20216;-73
2021/06/28 03:15:54;;;;;;;287.75;148.45;;;;;;;19.82;77.27;97841.22;4990071;28;20243;-73
2021/06/28 03:18:21;;;;;;;292.83;144.60;;;;;;;19.89;76.95;97837.13;4990087;28;20239;-73
2021/06/28 03:20:47;;;;;;;295.08;148.93;;;;;;;20.04;76.92;97837.66;4990366;28;20870;-74
2021/06/28 03:23:14;;;;;;;297.60;148.38;;;;;;;19.96;76.86;97837.44;4989098;28;20216;-73
2021/06/28 03:25:41;;;;;;;300.35;151.55;;;;;;;19.86;76.69;97837.34;4989167;28;20997;-73
2021/06/28 03:28:08;;;;;;;285.63;147.15;;;;;;;19.81;76.92;97832.47;4989799;28;20204;-73
2021/06/28 03:30:34;;;;;;;290.75;143.85;;;;;;;19.86;76.97;97831.22;4990156;28;20923;-73
2021/06/28 03:33:01;;;;;;;301.05;148.50;;;;;;;19.58;77.78;97838.75;4988850;28;20219;-74
2021/06/28 03:35:28;;;;;;;298.92;145.75;;;;;;;19.58;77.67;97844.03;4989622;28;20242;-73
2021/06/28 03:37:54;;;;;;;300.20;144.57;;;;;;;19.38;78.73;97846.44;4988971;28;20243;-74
2021/06/28 03:40:21;;;;;;;307.67;141.55;;;;;;;19.34;79.14;97844.19;4986049;28;20610;-73
2021/06/28 03:42:49;;;;;;;289.95;139.13;;;;;;;19.34;79.02;97852.94;4989804;28;20219;-73
2021/06/28 03:45:16;;;;;;;306.88;143.40;;;;;;;19.19;80.57;97854.19;4989616;28;20243;-73
2021/06/28 03:47:43;;;;;;;300.10;139.95;;;;;;;19.51;80.68;97853.41;4988461;28;20212;-73
2021/06/28 03:50:11;;;;;;;297.33;139.48;;;;;;;20.00;78.68;97844.19;4988249;28;20216;-73
2021/06/28 03:52:38;;;;;;;297.75;142.70;;;;;;;20.02;78.23;97843.09;4990643;28;21108;-73
2021/06/28 03:55:06;;;;;;;300.42;143.45;;;;;;;19.58;80.42;97846.66;4986140;28;20251;-73
2021/06/28 03:57:32;;;;;;;301.38;139.95;;;;;;;19.37;80.60;97860.66;4985335;28;20236;-73
2021/06/28 04:00:00;;;;;;;302.48;146.75;;;;;;;19.70;78.69;97856.25;4989012;28;20219;-73
2021/06/28 04:02:27;;;;;;;305.40;143.02;;;;;;;20.11;78.68;97852.09;4988941;28;20232;-73
2021/06/28 04:04:54;;;;;;;293.98;141.75;;;;;;;20.55;76.53;97844.88;4988851;28;20259;-73
2021/06/28 04:07:20;;;;;;;301.77;215.77;;;;;;;20.26;77.52;97849.97;4988860;28;20239;-73
2021/06/28 04:09:47;;;;;;;292.95;146.43;;;;;;;19.93;79.16;97843.00;4991581;28;20632;-73
2021/06/28 04:12:13;;;;;;;296.08;144.52;;;;;;;19.63;80.87;97841.84;4989484;28;20235;-73
2021/06/28 04:14:41;;;;;;;297.83;146.68;;;;;;;19.88;80.30;97839.88;4988192;28;21039;-73
2021/06/28 04:17:10;;;;;;;290.75;141.98;;;;;;;19.98;79.85;97840.84;4986242;28;20860;-73
2021/06/28 04:19:37;;;;;;;302.83;145.38;;;;;;;20.12;78.53;97848.44;4986621;28;20251;-73
2021/06/28 04:22:04;;;;;;;287.83;143.18;;;;;;;19.90;79.08;97845.91;4985527;28;20231;-73
2021/06/28 04:24:30;;;;;;;292.92;146.80;;;;;;;19.59;80.72;97850.97;4989580;28;20743;-73
2021/06/28 04:26:57;;;;;;;290.40;145.90;;;;;;;19.59;80.86;97858.91;4988810;28;20239;-73
2021/06/28 04:29:24;;;;;;;295.88;144.93;;;;;;;19.88;80.48;97853.13;4991174;28;20231;-73
2021/06/28 04:31:52;;;;;;;298.35;142.63;;;;;;;19.74;81.07;97855.09;4989813;28;20246;-73
2021/06/28 04:34:20;;;;;;;290.58;148.57;;;;;;;19.99;79.66;97863.66;4990557;28;20223;-73
2021/06/28 04:36:46;;;;;;;295.67;142.93;;;;;;;19.68;80.79;97855.53;4985151;28;20251;-74
2021/06/28 04:39:13;;;;;;;289.17;143.70;;;;;;;19.75;81.95;97872.63;4988556;28;20231;-73
2021/06/28 04:41:39;;;;;;;297.73;142.55;;;;;;;19.77;81.58;97883.09;4987577;28;20247;-73
2021/06/28 04:44:06;;;;;;;300.17;146.18;;;;;;;19.96;81.39;97869.19;4987345;28;20220;-73
2021/06/28 04:46:32;;;;;;;298.52;144.65;;;;;;;19.87;81.76;97870.81;4987441;28;20251;-73
2021/06/28 04:48:59;;;;;;;299.42;143.95;;;;;;;19.73;82.10;97874.56;4988354;28;20569;-73
2021/06/28 04:51:27;;;;;;;297.10;147.15;;;;;;;19.87;81.40;97869.94;4985968;28;20236;-73
2021/06/28 04:53:53;;;;;;;282.63;143.18;;;;;;;20.05;79.73;97871.09;4990703;28;20216;-73
2021/06/28 04:56:19;;;;;;;296.70;143.80;;;;;;;19.95;79.59;97868.38;4989629;28;20251;-73
2021/06/28 04:58:46;;;;;;;285.25;148.38;;;;;;;19.76;81.56;97869.03;4987908;28;20242;-73
2021/06/28 05:01:12;;;;;;;298.00;142.40;;;;;;;19.90;81.31;97861.78;4986727;28;20243;-73
2021/06/28 05:03:39;;;;;;;268.33;136.82;;;;;;;20.02;81.40;97864.25;4980374;28;20208;-73
2021/06/28 05:06:06;;;;;;;318.23;149.60;;;;;;;20.50;78.72;97862.97;4988778;28;20259;-73
2021/06/28 05:08:34;;;;;;;266.02;141.23;;;;;;;20.48;78.30;97870.22;4991902;28;20223;-73
2021/06/28 05:11:00;;;;;;;278.92;146.63;;;;;;;20.65;77.67;97886.53;4991602;28;20240;-73
2021/06/28 05:13:27;;;;;;;288.23;155.55;;;;;;;20.72;77.17;97877.94;4990638;28;20363;-73
2021/06/28 05:15:53;;;;;;;277.08;150.52;;;;;;;20.40;78.51;97875.28;4990545;28;20246;-73
2021/06/28 05:18:20;;;;;;;276.23;150.52;;;;;;;20.12;80.49;97888.16;4992676;28;20320;-72
2021/06/28 05:20:46;;;;;;;271.92;143.52;;;;;;;20.63;77.99;97875.22;4994069;28;20636;-73
2021/06/28 05:23:14;;;;;;;267.65;148.13;;;;;;;20.97;76.85;97876.69;4993898;28;20208;-73
2021/06/28 05:25:42;;;;;;;284.52;150.55;;;;;;;21.20;79.74;97881.81;4994085;28;20247;-73
2021/06/28 05:28:10;;;;;;;265.40;144.35;;;;;;;20.58;80.38;97860.50;4993957;28;20242;-74
2021/06/28 05:30:37;;;;;;;291.80;162.85;;;;;;;20.87;84.86;97869.66;4994412;28;20856;-74
2021/06/28 05:33:04;;;;;;;301.23;156.52;;;;;;;21.09;82.57;97871.31;4993286;28;20224;-73
2021/06/28 05:35:30;;;;;;;280.50;148.65;;;;;;;21.32;81.21;97871.94;4993224;28;20240;-73
2021/06/28 05:37:57;;;;;;;275.00;151.30;;;;;;;21.30;79.10;97872.09;4995058;28;20244;-73
2021/06/28 05:40:23;;;;;;;276.75;149.90;;;;;;;21.46;77.77;97876.91;4993351;28;20616;-74
2021/06/28 05:42:51;;;;;;;272.75;150.63;;;;;;;21.23;77.45;97868.31;4994477;28;20223;-73
2021/06/28 05:45:17;;;;;;;293.60;165.13;;;;;;;21.19;78.37;97866.88;4993963;28;20614;-74
2021/06/28 05:47:45;;;;;;;276.27;156.25;;;;;;;21.30;79.24;97869.44;4993071;28;20227;-73
2021/06/28 05:50:14;;;;;;;267.40;154.57;;;;;;;21.09;80.03;97864.19;4994315;28;20212;-73
2021/06/28 05:52:40;;;;;;;274.25;156.77;;;;;;;21.27;80.49;97856.44;4995956;28;20216;-74
2021/06/28 05:55:08;;;;;;;292.48;152.38;;;;;;;21.54;78.80;97860.31;4992388;28;20244;-69
2021/06/28 05:57:35;;;;;;;282.80;151.60;;;;;;;21.98;78.03;97852.03;4995554;28;20219;-74
2021/06/28 06:00:04;;;;;;;281.30;154.50;;;;;;;22.11;76.19;97849.94;4994786;28;20658;-73
2021/06/28 06:02:31;;;;;;;272.77;158.13;;;;;;;22.27;75.61;97852.06;4993191;28;20244;-73
2021/06/28 06:04:57;;;;;;;279.67;155.43;;;;;;;21.69;75.75;97848.38;4992892;28;20236;-73
2021/06/28 06:07:24;;;;;;;270.10;161.00;;;;;;;21.63;77.36;97856.03;4992341;28;20255;-73
2021/06/28 06:09:50;;;;;;;277.73;158.90;;;;;;;21.97;74.75;97848.53;4993229;28;20867;-73
2021/06/28 06:12:17;;;;;;;266.05;155.32;;;;;;;21.95;75.22;97861.13;4991738;28;20248;-73
2021/06/28 06:14:44;;;;;;;276.30;160.45;;;;;;;21.84;75.08;97855.94;4992966;28;20232;-73
2021/06/28 06:17:12;;;;;;;271.38;157.65;;;;;;;21.95;74.68;97850.50;4991813;28;20259;-74
2021/06/28 06:19:38;;;;;;;262.92;159.13;;;;;;;22.06;74.14;97850.38;4990277;28;20967;-73
2021/06/28 06:22:05;;;;;;;278.98;159.93;;;;;;;22.17;73.47;97848.56;4992577;28;20777;-74
2021/06/28 06:24:31;;;;;;;281.08;161.00;;;;;;;22.20;72.76;97853.56;4990938;28;20725;-73
2021/06/28 06:26:58;;;;;;;273.27;163.70;;;;;;;22.03;73.80;97849.78;4995138;28;20235;-73
2021/06/28 06:29:25;;;;;;;275.58;164.88;;;;;;;22.32;71.96;97852.50;4994924;28;20227;-73
2021/06/28 06:31:52;;;;;;;265.50;155.90;;;;;;;22.48;71.22;97858.06;4991980;28;20243;-73
2021/06/28 06:34:22;;;;;;;274.00;155.68;;;;;;;22.84;69.84;97846.81;4992924;28;20218;-74
2021/06/28 06:36:49;;;;;;;276.23;164.27;;;;;;;23.07;68.84;97839.34;4992230;28;20236;-73
2021/06/28 06:39:15;;;;;;;275.13;166.95;;;;;;;23.22;68.31;97843.22;4995775;28;20705;-74
2021/06/28 06:41:42;;;;;;;290.83;173.45;;;;;;;23.35;67.63;97847.38;4991782;28;20243;-73
2021/06/28 06:44:08;;;;;;;275.90;182.52;;;;;;;23.24;67.98;97843.91;4993117;28;20227;-73
2021/06/28 06:46:35;;;;;;;284.00;166.77;;;;;;;23.16;68.26;97846.47;4993106;28;20240;-73
2021/06/28 06:49:02;;;;;;;290.20;180.45;;;;;;;23.44;66.85;97849.13;4995151;28;20213;-74
2021/06/28 06:51:31;;;;;;;276.60;174.52;;;;;;;23.61;66.40;97840.34;4993180;28;20244;-74
2021/06/28 06:53:58;;;;;;;293.20;192.20;;;;;;;23.77;65.65;97838.88;4992978;28;20232;-73
2021/06/28 06:56:24;;;;;;;278.13;176.63;;;;;;;23.48;67.39;97840.69;4991890;28;20247;-74
2021/06/28 06:58:52;;;;;;;266.83;172.55;;;;;;;23.29;68.19;97846.97;4995630;28;20235;-74
2021/06/28 07:01:18;;;;;;;281.38;164.95;;;;;;;23.00;69.46;97848.88;4992912;28;20251;-74
2021/06/28 07:03:45;;;;;;;268.45;170.68;;;;;;;22.90;70.54;97849.75;4992899;28;20224;-74
2021/06/28 07:06:12;;;;;;;260.77;168.63;;;;;;;23.28;68.46;97866.56;4991764;28;20244;-73
2021/06/28 07:08:40;;;;;;;285.20;173.80;;;;;;;23.37;67.86;97870.16;4993394;28;20220;-74
2021/06/28 07:11:11;;;;;;;276.08;176.07;;;;;;;23.29;69.25;97860.25;4990757;28;20239;-73
2021/06/28 07:13:37;;;;;;;286.90;185.10;;;;;;;23.95;65.59;97868.19;4989709;28;20835;-74
2021/06/28 07:16:05;;;;;;;288.33;189.25;;;;;;;23.90;66.20;97866.00;4991858;28;20243;-74
2021/06/28 07:18:31;;;;;;;276.88;186.13;;;;;;;23.63;66.85;97859.66;4990287;28;20241;-74
2021/06/28 07:20:58;;;;;;;277.00;176.57;;;;;;;23.78;66.32;97860.00;4992023;28;20239;-74
2021/06/28 07:23:24;;;;;;;273.75;178.73;;;;;;;23.94;65.91;97856.69;4992232;28;20594;-73
2021/06/28 07:25:52;;;;;;;274.98;199.63;;;;;;;23.82;66.63;97852.56;4993517;28;20250;-73
2021/06/28 07:28:19;;;;;;;287.48;186.23;;;;;;;24.35;64.21;97851.75;4991111;28;20223;-74
2021/06/28 07:30:45;;;;;;;284.35;187.90;;;;;;;24.34;64.41;97857.25;4992310;28;20240;-74
2021/06/28 07:33:12;;;;;;;280.70;208.60;;;;;;;24.55;63.46;97854.28;4991826;28;20226;-73
2021/06/28 07:35:38;;;;;;;282.55;195.70;;;;;;;24.61;63.58;97854.50;4993829;28;20239;-74
2021/06/28 07:38:05;;;;;;;280.27;193.02;;;;;;;24.52;63.98;97849.22;4994251;28;20220;-74
2021/06/28 07:40:31;;;;;;;291.25;204.13;;;;;;;24.69;63.58;97845.72;4992346;28;20722;-74
2021/06/28 07:42:59;;;;;;;293.73;214.25;;;;;;;24.80;63.04;97847.28;4994526;28;20226;-74
2021/06/28 07:45:26;;;;;;;288.33;203.18;;;;;;;24.91;62.47;97844.34;4990906;28;20231;-74
2021/06/28 07:47:52;;;;;;;285.38;201.68;;;;;;;24.93;62.83;97841.53;4994427;28;20219;-74
2021/06/28 07:50:19;;;;;;;280.30;196.55;;;;;;;25.08;62.25;97839.94;4990787;28;20218;-75
2021/06/28 07:52:46;;;;;;;275.88;191.77;;;;;;;25.08;62.39;97850.63;4994358;28;20226;-74
2021/06/28 07:55:14;;;;;;;304.10;213.95;;;;;;;24.99;62.79;97836.38;4990840;28;20231;-74
2021/06/28 07:57:41;;;;;;;275.75;209.60;;;;;;;25.07;64.26;97846.28;4991217;28;20242;-74
2021/06/28 08:00:11;;;;;;;296.48;211.13;;;;;;;24.91;62.74;97843.53;4991546;28;20247;-74
2021/06/28 08:02:37;;;;;;;291.42;219.90;;;;;;;25.15;62.82;97850.84;4992525;28;20600;-74
2021/06/28 08:05:05;;;;;;;282.48;212.02;;;;;;;25.35;61.51;97852.28;4992531;28;20247;-74
2021/06/28 08:07:31;;;;;;;291.50;218.20;;;;;;;25.51;60.81;97851.53;4990199;28;20236;-74
2021/06/28 08:09:58;;;;;;;291.48;215.70;;;;;;;25.65;60.36;97843.88;4988902;28;20215;-73
2021/06/28 08:12:25;;;;;;;284.08;206.73;;;;;;;25.68;60.01;97851.59;4991626;28;20748;-74
2021/06/28 08:14:51;;;;;;;288.73;219.73;;;;;;;25.77;58.83;97846.09;4990584;28;20232;-74
2021/06/28 08:17:19;;;;;;;291.02;224.95;;;;;;;25.84;58.91;97854.28;4989976;28;20710;-74
2021/06/28 08:19:47;;;;;;;281.58;211.32;;;;;;;25.92;58.40;97851.66;4990341;28;20244;-74
2021/06/28 08:22:13;;;;;;;288.27;220.50;;;;;;;25.87;58.17;97845.13;4989963;28;20246;-73
2021/06/28 08:24:40;;;;;;;285.88;223.48;;;;;;;25.92;58.72;97842.78;4989631;28;20658;-75
2021/06/28 08:27:07;;;;;;;288.25;228.93;;;;;;;26.03;58.25;97849.69;4991911;28;20251;-74
2021/06/28 08:29:33;;;;;;;293.92;232.07;;;;;;;26.16;57.81;97844.69;4990650;28;20228;-74
2021/06/28 08:32:00;;;;;;;276.27;238.75;;;;;;;26.23;57.75;97844.84;4990644;28;20240;-74
2021/06/28 08:34:28;;;;;;;296.10;233.80;;;;;;;26.25;57.52;97846.38;4989532;28;20220;-74
2021/06/28 08:36:55;;;;;;;288.63;227.70;;;;;;;26.40;56.64;97841.19;4988318;28;20227;-74
2021/06/28 08:39:21;;;;;;;262.05;230.23;;;;;;;26.45;56.46;97838.00;4992662;28;20247;-74
2021/06/28 08:41:49;;;;;;;288.23;230.52;;;;;;;26.56;56.36;97843.03;4992326;28;20232;-74
2021/06/28 08:44:16;;;;;;;282.20;231.40;;;;;;;26.64;56.28;97840.38;4990095;28;20230;-74
2021/06/28 08:46:44;;;;;;;289.63;236.77;;;;;;;26.61;55.59;97846.03;4992243;28;20233;-74
2021/06/28 08:49:11;;;;;;;288.17;243.02;;;;;;;26.65;55.33;97842.06;4989670;28;21016;-74
2021/06/28 08:51:40;;;;;;;305.20;245.63;;;;;;;26.74;55.05;97840.19;4988992;28;20232;-74
2021/06/28 08:54:09;;;;;;;284.30;239.90;;;;;;;26.81;56.26;97843.03;4987511;28;20219;-74
2021/06/28 08:56:37;;;;;;;292.13;248.85;;;;;;;26.93;54.22;97836.31;4991066;28;20235;-74
2021/06/28 08:59:04;;;;;;;300.15;259.20;;;;;;;26.85;54.55;97839.00;4989749;28;20216;-74
2021/06/28 09:01:32;;;;;;;312.67;264.42;;;;;;;26.90;53.56;97842.00;4991555;28;20274;-74
2021/06/28 09:03:58;;;;;;;310.63;276.05;;;;;;;26.98;53.02;97846.50;4992844;28;20216;-74
2021/06/28 09:06:26;;;;;;;285.90;240.88;;;;;;;27.00;53.46;97842.66;4989449;28;20251;-74
2021/06/28 09:09:01;;;;;;;275.92;227.82;;;;;;;27.06;52.76;97847.31;4991326;28;20215;-74
2021/06/28 09:11:28;;;;;;;288.70;229.02;;;;;;;27.14;52.43;97835.75;4989759;28;20819;-76
2021/06/28 09:13:56;;;;;;;286.58;245.43;;;;;;;27.21;52.27;97841.25;4990773;28;20891;-74
2021/06/28 09:16:24;;;;;;;280.05;236.77;;;;;;;27.30;51.89;97838.41;4991208;28;20248;-74
2021/06/28 09:18:58;;;;;;;272.52;233.48;;;;;;;27.36;52.08;97852.13;4993697;28;20212;-75
2021/06/28 09:21:28;;;;;;;278.95;236.23;;;;;;;27.42;51.57;97836.19;4990427;28;20946;-74
2021/06/28 09:23:57;;;;;;;284.63;241.10;;;;;;;27.52;50.97;97837.81;4991473;28;20791;-74
2021/06/28 09:26:28;;;;;;;294.83;253.30;;;;;;;27.27;51.84;97843.25;4988580;28;20687;-74
2021/06/28 09:28:56;;;;;;;289.08;245.52;;;;;;;27.44;51.05;97830.63;4991233;28;20232;-74
2021/06/28 09:31:35;;;;;;;284.25;252.80;;;;;;;27.61;50.00;97842.97;4990516;28;20263;-74
2021/06/28 09:34:07;;;;;;;295.30;262.08;;;;;;;27.62;49.73;97841.94;4989714;28;20226;-74
2021/06/28 09:37:30;;;;;;;297.83;251.57;;;;;;;27.73;49.79;97842.56;5047828;27;20575;-72
2021/06/28 09:39:59;;;;;;;280.95;246.88;;;;;;;27.75;50.23;97835.19;5045347;28;20222;-72
2021/06/28 09:42:27;;;;;;;289.55;256.58;;;;;;;27.77;50.26;97833.97;5047085;28;20234;-74
2021/06/28 09:44:55;;;;;;;298.27;264.05;;;;;;;27.84;49.73;97834.94;5052008;28;20237;-74
2021/06/28 09:47:23;;;;;;;288.50;256.98;;;;;;;27.78;49.85;97832.97;5067634;28;20240;-74
2021/06/28 09:50:01;;;;;;;301.58;269.27;;;;;;;27.81;49.59;97827.28;5068676;28;20673;-74
2021/06/28 09:52:31;;;;;;;286.00;252.68;;;;;;;27.95;49.19;97831.06;5065046;28;20237;-74
2021/06/28 09:55:12;;;;;;;291.38;256.95;;;;;;;27.98;49.56;97833.41;5065323;28;20621;-74
2021/06/28 09:57:39;;;;;;;297.13;265.42;;;;;;;28.01;49.78;97835.72;5065923;28;20233;-74
2021/06/28 10:00:24;;;;;;;289.00;257.33;;;;;;;27.98;49.45;97832.56;5067061;28;20240;-74
2021/06/28 10:02:50;;;;;;;298.65;267.02;;;;;;;27.96;49.57;97826.56;5069378;28;20205;-74
2021/06/28 10:05:19;;;;;;;299.02;260.95;;;;;;;28.02;49.27;97821.28;5062121;28;20236;-74
2021/06/28 10:07:47;;;;;;;286.95;255.73;;;;;;;28.07;49.10;97818.91;5066558;28;20310;-74
2021/06/28 10:10:21;;;;;;;296.17;264.30;;;;;;;28.12;49.06;97817.53;5063209;28;20218;-74
2021/06/28 10:12:53;;;;;;;303.23;269.77;;;;;;;28.16;48.89;97827.75;5067681;28;20285;-73
2021/06/28 10:15:22;;;;;;;311.55;276.85;;;;;;;28.23;48.65;97823.34;5068096;28;20240;-74
2021/06/28 10:17:49;;;;;;;302.52;269.85;;;;;;;28.27;48.51;97818.44;5067824;28;20239;-74
2021/06/28 10:20:19;;;;;;;290.77;259.42;;;;;;;28.32;48.57;97816.03;5064784;28;20663;-74
2021/06/28 10:22:48;;;;;;;310.52;279.42;;;;;;;28.27;48.54;97813.91;5064202;28;20251;-74
2021/06/28 10:25:17;;;;;;;319.48;285.17;;;;;;;28.29;48.37;97807.50;5066593;28;20235;-74
2021/06/28 10:27:45;;;;;;;313.95;281.70;;;;;;;28.25;48.29;97812.41;5066791;28;20206;-74
2021/06/28 10:30:14;;;;;;;294.45;262.45;;;;;;;28.24;48.03;97808.91;5064858;28;20729;-74
2021/06/28 10:32:42;;;;;;;308.35;275.92;;;;;;;28.26;47.96;97804.19;5065612;28;20530;-74
2021/06/28 10:35:14;;;;;;;315.23;275.73;;;;;;;28.42;47.38;97807.75;5066157;28;20233;-74
2021/06/28 10:37:43;;;;;;;306.30;273.42;;;;;;;28.45;48.28;97808.22;5068273;28;20226;-74
2021/06/28 10:40:13;;;;;;;306.50;274.30;;;;;;;28.33;48.06;97811.53;5067736;28;20304;-74
2021/06/28 10:42:42;;;;;;;313.85;281.00;;;;;;;28.45;48.42;97802.00;5068012;28;20225;-74
2021/06/28 10:45:10;;;;;;;316.25;282.55;;;;;;;28.51;49.65;97801.31;5067049;28;20241;-73
2021/06/28 10:47:37;;;;;;;315.58;282.23;;;;;;;28.58;48.95;97799.59;5059213;28;20225;-74
2021/06/28 10:50:05;;;;;;;317.08;283.40;;;;;;;28.50;48.13;97799.63;5056240;28;20214;-73
2021/06/28 10:52:50;;;;;;;317.70;285.08;;;;;;;28.60;47.87;97789.50;5054086;28;20225;-74
2021/06/28 10:55:39;;;;;;;316.85;281.90;;;;;;;28.58;48.05;97794.22;5050704;28;20622;-74
2021/06/28 10:58:28;;;;;;;310.98;277.75;;;;;;;28.61;49.43;97787.66;5053110;28;20597;-74
2021/06/28 11:01:02;;;;;;;307.77;275.90;;;;;;;28.64;48.10;97785.44;5053390;28;20306;-74
2021/06/28 11:03:34;;;;;;;311.77;279.35;;;;;;;28.73;49.84;97782.66;5054506;28;20217;-74
2021/06/28 11:06:18;;;;;;;321.42;288.52;;;;;;;28.59;48.19;97787.81;5053251;28;20237;-74